Time;durP1;ratioP1;P1;durP2;ratioP2;P2;SDS_P1;SDS_P2;PMS_P1;PMS_P2;Temp;Humidity;BMP_temperature;BMP_pressure;BME280_temperature;BME280_humidity;BME280_pressure;Samples;Min_cycle;Max_cycle;Signal;HPM_P1;HPM_P2
2023/04/29 00:02:13;;;;;;;143.70;59.50;;;;;;;18.31;47.98;100871.72;5042718;28;20041;-70
2023/04/29 00:04:39;;;;;;;139.35;59.50;;;;;;;18.30;47.72;100869.16;5032361;28;20033;-70
2023/04/29 00:07:04;;;;;;;143.00;59.15;;;;;;;18.28;48.31;100879.78;5021091;28;20486;-69
2023/04/29 00:09:29;;;;;;;132.95;56.53;;;;;;;18.26;48.15;100876.38;5040952;28;20104;-69
2023/04/29 00:11:55;;;;;;;136.20;57.50;;;;;;;18.25;48.42;100874.63;5047601;28;20037;-70
2023/04/29 00:14:20;;;;;;;152.40;60.15;;;;;;;18.26;47.87;100878.16;5036868;28;20129;-70
2023/04/29 00:16:45;;;;;;;135.02;57.38;;;;;;;18.27;48.30;100874.56;5020964;28;20041;-70
2023/04/29 00:19:11;;;;;;;144.25;59.72;;;;;;;18.28;47.75;100878.94;5022374;28;20057;-70
2023/04/29 00:21:37;;;;;;;135.57;57.78;;;;;;;18.25;48.08;100872.00;5025216;28;20022;-70
2023/04/29 00:24:02;;;;;;;148.52;60.33;;;;;;;18.26;48.15;100867.59;5034412;28;20112;-71
2023/04/29 00:26:28;;;;;;;130.55;57.38;;;;;;;18.28;48.04;100877.13;5032986;28;20024;-70
2023/04/29 00:28:53;;;;;;;149.38;63.50;;;;;;;18.26;48.56;100884.28;5031389;28;20068;-71
2023/04/29 00:31:18;;;;;;;145.52;59.40;;;;;;;18.24;48.78;100878.22;5040283;28;20048;-70
2023/04/29 00:33:44;;;;;;;132.88;57.60;;;;;;;18.25;48.91;100887.84;5017745;28;20690;-69
2023/04/29 00:36:10;;;;;;;135.93;57.70;;;;;;;18.26;48.17;100881.66;5017959;28;20478;-70
2023/04/29 00:38:35;;;;;;;147.10;59.50;;;;;;;18.29;47.92;100884.16;5005293;28;20032;-70
2023/04/29 00:41:01;;;;;;;152.68;59.22;;;;;;;18.30;48.19;100890.31;5040861;28;20406;-70
2023/04/29 00:43:27;;;;;;;137.90;58.10;;;;;;;18.29;48.75;100891.22;5024463;28;20037;-70
2023/04/29 00:45:52;;;;;;;138.65;58.00;;;;;;;18.28;48.79;100887.72;5035584;28;20037;-69
2023/04/29 00:48:17;;;;;;;142.75;60.13;;;;;;;18.27;48.49;100895.72;5017567;28;20031;-70
2023/04/29 00:50:43;;;;;;;139.32;60.30;;;;;;;18.26;48.41;100894.88;5037700;28;20098;-70
2023/04/29 00:53:09;;;;;;;132.40;56.85;;;;;;;18.29;48.47;100904.44;5000861;28;20024;-70
2023/04/29 00:55:34;;;;;;;138.38;58.58;;;;;;;18.28;48.02;100908.88;5003218;28;20079;-71
2023/04/29 00:58:01;;;;;;;140.82;63.92;;;;;;;18.28;48.53;100913.31;5016479;28;20025;-70
2023/04/29 01:00:27;;;;;;;147.45;64.22;;;;;;;18.28;48.15;100914.16;5031702;28;20030;-70
2023/04/29 01:02:55;;;;;;;134.45;58.92;;;;;;;18.27;48.25;100911.59;5021923;28;20032;-69
2023/04/29 01:05:22;;;;;;;138.55;62.33;;;;;;;18.26;48.72;100920.47;5020643;28;20056;-71
2023/04/29 01:08:14;;;;;;;132.02;58.63;;;;;;;18.23;48.89;100932.03;5025095;28;20037;-71
2023/04/29 01:10:53;;;;;;;143.32;59.03;;;;;;;18.24;48.11;100924.03;5035617;28;20083;-71
2023/04/29 01:13:28;;;;;;;136.30;58.25;;;;;;;18.26;48.99;100928.41;5036947;28;20053;-69
2023/04/29 01:15:57;;;;;;;134.40;57.33;;;;;;;18.25;48.29;100930.16;5015568;28;20025;-70
2023/04/29 01:18:49;;;;;;;134.63;57.45;;;;;;;18.27;48.15;100933.63;5031789;28;20025;-69
2023/04/29 01:21:14;;;;;;;135.95;58.95;;;;;;;18.28;48.75;100934.47;5030115;28;20025;-70
2023/04/29 01:23:40;;;;;;;135.77;58.17;;;;;;;18.23;48.63;100939.97;5013580;28;20055;-70
2023/04/29 01:26:07;;;;;;;139.07;58.78;;;;;;;18.23;49.01;100937.31;5014535;28;20483;-69
2023/04/29 01:28:40;;;;;;;144.85;59.10;;;;;;;18.23;49.36;100939.97;4999550;28;20032;-71
2023/04/29 01:31:14;;;;;;;144.55;58.67;;;;;;;18.21;49.45;100947.09;5014181;28;20017;-70
2023/04/29 01:33:45;;;;;;;133.75;57.45;;;;;;;18.23;49.40;100942.59;5030920;28;20026;-70
2023/04/29 01:36:23;;;;;;;141.88;57.58;;;;;;;18.21;48.91;100941.81;5029892;28;20029;-71
2023/04/29 01:38:54;;;;;;;146.20;59.20;;;;;;;18.23;49.32;100947.91;5032814;28;20111;-71
2023/04/29 01:41:32;;;;;;;134.90;57.03;;;;;;;18.20;48.77;100945.38;5029429;28;20045;-70
2023/04/29 01:43:58;;;;;;;138.73;57.35;;;;;;;18.20;49.47;100943.59;5007795;28;20063;-71
2023/04/29 01:46:23;;;;;;;138.77;58.22;;;;;;;18.19;48.65;100941.88;5031135;28;20044;-70
2023/04/29 01:48:52;;;;;;;147.60;59.58;;;;;;;18.19;49.37;100944.50;5032321;28;20106;-71
2023/04/29 01:51:18;;;;;;;138.02;57.83;;;;;;;18.19;49.28;100951.59;5033262;28;20026;-71
2023/04/29 01:53:43;;;;;;;135.60;57.33;;;;;;;18.19;49.06;100951.59;5015504;28;20108;-71
2023/04/29 01:56:08;;;;;;;136.52;56.90;;;;;;;18.21;49.70;100958.50;5015435;28;20029;-70
2023/04/29 01:58:34;;;;;;;134.88;57.35;;;;;;;18.18;48.91;100960.44;5033690;28;20082;-69
2023/04/29 02:00:59;;;;;;;135.52;57.92;;;;;;;18.17;49.53;100964.00;5033179;28;20083;-70
2023/04/29 02:03:24;;;;;;;134.18;57.03;;;;;;;18.18;49.20;100973.66;5031825;28;20533;-71
2023/04/29 02:05:50;;;;;;;142.32;57.67;;;;;;;18.14;49.96;100974.72;5029767;28;20103;-70
2023/04/29 02:08:18;;;;;;;136.35;57.38;;;;;;;18.16;49.33;100975.50;5032774;28;20130;-70
2023/04/29 02:10:56;;;;;;;142.23;58.60;;;;;;;18.14;49.55;100977.38;5034259;28;20031;-70
2023/04/29 02:13:21;;;;;;;138.75;58.40;;;;;;;18.13;49.92;100978.28;5030516;28;20025;-70
2023/04/29 02:15:47;;;;;;;145.15;59.03;;;;;;;18.13;50.17;100986.22;5028804;28;20604;-70
2023/04/29 02:18:12;;;;;;;135.13;56.80;;;;;;;18.13;49.76;100983.56;5031235;28;20534;-69
2023/04/29 02:20:38;;;;;;;143.05;58.13;;;;;;;18.12;49.94;100997.72;5031210;28;20033;-70
2023/04/29 02:23:03;;;;;;;137.73;58.05;;;;;;;18.11;49.48;100999.50;5014653;28;20031;-70
2023/04/29 02:25:29;;;;;;;142.18;59.35;;;;;;;18.13;49.94;100991.50;5024933;28;20099;-70
2023/04/29 02:27:54;;;;;;;137.68;56.75;;;;;;;18.11;49.63;100996.88;5020236;28;20021;-69
2023/04/29 02:30:20;;;;;;;140.07;58.28;;;;;;;18.13;49.81;100999.44;5029724;28;20052;-70
2023/04/29 02:32:45;;;;;;;137.52;57.47;;;;;;;18.10;49.95;101011.00;5034599;28;20053;-70
2023/04/29 02:35:11;;;;;;;136.85;58.08;;;;;;;18.07;49.79;101011.97;5027556;28;20025;-70
2023/04/29 02:37:37;;;;;;;126.22;56.42;;;;;;;18.08;49.53;101013.72;5019142;28;20021;-70
2023/04/29 02:40:02;;;;;;;140.18;58.40;;;;;;;18.07;49.90;101014.63;5013701;28;20468;-70
2023/04/29 02:42:28;;;;;;;141.88;58.50;;;;;;;18.04;50.02;101020.06;5024711;28;20021;-69
2023/04/29 02:44:53;;;;;;;142.10;57.92;;;;;;;18.07;49.80;101022.56;5017677;28;20021;-71
2023/04/29 02:47:18;;;;;;;136.60;57.47;;;;;;;18.06;49.73;101017.34;5036882;28;20053;-70
2023/04/29 02:49:44;;;;;;;133.75;56.55;;;;;;;18.05;49.49;101020.91;5034028;28;20037;-71
2023/04/29 02:52:09;;;;;;;139.63;58.83;;;;;;;18.08;50.05;101013.72;5032389;28;20026;-71
2023/04/29 02:54:35;;;;;;;139.38;56.70;;;;;;;18.11;49.29;101014.53;5047221;28;20514;-72
2023/04/29 02:57:00;;;;;;;138.88;57.45;;;;;;;18.14;49.40;101022.31;5016657;28;20045;-71
2023/04/29 02:59:26;;;;;;;138.48;56.47;;;;;;;18.17;49.58;101023.03;5032189;28;20065;-71
2023/04/29 03:01:53;;;;;;;137.70;56.38;;;;;;;18.18;49.09;101024.75;5042286;28;20036;-70
2023/04/29 03:04:19;;;;;;;154.88;59.70;;;;;;;18.22;48.96;101020.19;5021871;28;20148;-71
2023/04/29 03:06:44;;;;;;;136.93;56.83;;;;;;;18.20;48.87;101011.47;5016424;28;20534;-71
2023/04/29 03:09:11;;;;;;;138.82;58.15;;;;;;;18.28;49.56;101027.84;5011244;28;20394;-71
2023/04/29 03:11:36;;;;;;;149.20;59.53;;;;;;;18.30;49.33;101033.94;5019669;28;20017;-71
2023/04/29 03:14:02;;;;;;;156.40;60.13;;;;;;;18.34;49.08;101030.25;5019666;28;20121;-71
2023/04/29 03:16:28;;;;;;;134.88;56.83;;;;;;;18.38;48.86;101036.25;5033852;28;20036;-71
2023/04/29 03:18:53;;;;;;;134.25;56.90;;;;;;;18.42;48.44;101040.50;5020191;28;20033;-71
2023/04/29 03:21:18;;;;;;;134.30;56.17;;;;;;;18.44;49.08;101045.72;5032761;28;20354;-71
2023/04/29 03:23:44;;;;;;;140.60;56.92;;;;;;;18.45;48.87;101045.66;5039846;28;20509;-71
2023/04/29 03:26:10;;;;;;;140.45;57.13;;;;;;;18.51;48.13;101052.44;5006786;28;20053;-70
2023/04/29 03:28:35;;;;;;;144.82;66.70;;;;;;;18.53;48.91;101050.59;5033134;28;20037;-71
2023/04/29 03:31:01;;;;;;;133.60;55.88;;;;;;;18.52;48.89;101059.47;5026008;28;20017;-71
2023/04/29 03:33:26;;;;;;;126.30;55.08;;;;;;;18.53;48.73;101055.91;5023413;28;20516;-71
2023/04/29 03:35:51;;;;;;;136.50;56.97;;;;;;;18.56;48.16;101066.34;5020743;28;20045;-72
2023/04/29 03:38:17;;;;;;;136.82;56.83;;;;;;;18.58;48.36;101067.09;5020032;28;20156;-71
2023/04/29 03:40:42;;;;;;;139.27;57.78;;;;;;;18.58;48.15;101070.63;5031293;28;20509;-71
2023/04/29 03:43:08;;;;;;;139.82;56.55;;;;;;;18.58;48.57;101064.47;5021318;28;20502;-71
2023/04/29 03:45:33;;;;;;;140.48;57.10;;;;;;;18.56;48.34;101067.19;5011777;28;20039;-71
2023/04/29 03:47:59;;;;;;;138.50;56.75;;;;;;;18.53;48.67;101067.31;5043191;28;20100;-71
2023/04/29 03:50:24;;;;;;;134.05;57.35;;;;;;;18.53;48.81;101082.34;5040425;28;20437;-71
2023/04/29 03:52:50;;;;;;;141.43;58.00;;;;;;;18.53;48.13;101077.91;5042246;28;20043;-72
2023/04/29 03:55:16;;;;;;;138.15;57.97;;;;;;;18.46;48.83;101080.88;5020448;28;20029;-71
2023/04/29 03:57:41;;;;;;;144.82;58.75;;;;;;;18.40;48.73;101087.28;5028043;28;20032;-71
2023/04/29 04:00:07;;;;;;;134.23;56.75;;;;;;;18.38;49.01;101090.00;5026739;28;20454;-71
2023/04/29 04:02:34;;;;;;;148.82;59.30;;;;;;;18.36;48.91;101091.84;5027195;28;20029;-71
2023/04/29 04:04:59;;;;;;;135.52;56.90;;;;;;;18.39;48.89;101091.72;5026275;28;20108;-70
2023/04/29 04:07:24;;;;;;;136.75;56.45;;;;;;;18.36;49.02;101098.94;5017686;28;20167;-71
2023/04/29 04:09:50;;;;;;;138.13;57.25;;;;;;;18.35;48.65;101099.84;5033975;28;20438;-71
2023/04/29 04:12:15;;;;;;;132.90;56.90;;;;;;;18.37;48.28;101104.16;5035640;28;20026;-72
2023/04/29 04:14:41;;;;;;;136.30;56.30;;;;;;;18.35;48.47;101103.38;5037543;28;20079;-72
2023/04/29 04:17:06;;;;;;;132.90;56.42;;;;;;;18.29;49.05;101111.53;5028058;28;20067;-71
2023/04/29 04:19:32;;;;;;;148.95;59.20;;;;;;;18.29;49.01;101116.84;5031070;28;20021;-71
2023/04/29 04:21:57;;;;;;;146.88;58.40;;;;;;;18.26;49.00;101111.69;5041875;28;20108;-71
2023/04/29 04:24:23;;;;;;;147.10;58.13;;;;;;;18.24;49.54;101124.09;5029193;28;20112;-71
2023/04/29 04:26:48;;;;;;;152.77;59.97;;;;;;;18.19;49.30;101120.78;5032127;28;20065;-71
2023/04/29 04:29:13;;;;;;;128.63;55.20;;;;;;;18.16;49.61;101126.19;5013595;28;20501;-71
2023/04/29 04:31:39;;;;;;;132.00;56.03;;;;;;;18.16;49.40;101127.06;5006749;28;20072;-71
2023/04/29 04:34:04;;;;;;;145.73;58.67;;;;;;;18.11;49.99;101129.03;5034481;28;20036;-70
2023/04/29 04:36:31;;;;;;;148.15;58.83;;;;;;;18.13;50.11;101136.91;5033871;28;20023;-71
2023/04/29 04:38:56;;;;;;;146.80;57.67;;;;;;;18.14;49.53;101143.91;5064558;22;20041;-68
2023/04/29 04:41:22;;;;;;;131.60;56.35;;;;;;;18.15;49.84;101150.94;5068409;28;20021;-68
2023/04/29 04:43:47;;;;;;;132.65;55.97;;;;;;;18.13;49.81;101143.03;5068494;28;20493;-68
2023/04/29 04:46:14;;;;;;;141.45;58.00;;;;;;;18.20;49.59;101151.56;5057981;28;20119;-68
2023/04/29 04:48:40;;;;;;;127.25;55.20;;;;;;;18.29;49.24;101153.84;5067995;28;20109;-68
2023/04/29 04:51:09;;;;;;;137.30;57.22;;;;;;;18.36;49.14;101160.59;5055844;28;20059;-68
2023/04/29 04:53:35;;;;;;;142.75;57.80;;;;;;;18.45;48.53;101171.72;5069755;28;20028;-68
2023/04/29 04:56:01;;;;;;;136.50;56.78;;;;;;;18.52;48.07;101171.41;5045189;28;20035;-68
2023/04/29 04:58:26;;;;;;;135.05;56.97;;;;;;;18.55;47.87;101178.34;5058613;28;20021;-68
2023/04/29 05:00:52;;;;;;;140.50;57.33;;;;;;;18.65;47.44;101182.34;5054803;28;20056;-68
2023/04/29 05:03:17;;;;;;;131.13;54.60;;;;;;;18.76;47.72;101187.19;5058159;28;20199;-68
2023/04/29 05:05:42;;;;;;;138.20;57.40;;;;;;;18.85;47.17;101194.69;5058897;28;20025;-68
2023/04/29 05:08:08;;;;;;;134.43;56.00;;;;;;;18.90;46.77;101192.75;5050570;28;20459;-68
2023/04/29 05:10:36;;;;;;;136.02;57.00;;;;;;;18.98;46.90;101192.44;5060278;28;20020;-68
2023/04/29 05:13:02;;;;;;;136.75;56.05;;;;;;;19.07;46.59;101197.34;5052534;28;20035;-69
2023/04/29 05:15:27;;;;;;;143.98;58.40;;;;;;;19.19;46.52;101195.91;5055007;28;20376;-68
2023/04/29 05:17:52;;;;;;;136.25;57.17;;;;;;;19.31;45.42;101201.59;5056946;28;20029;-68
2023/04/29 05:20:19;;;;;;;134.13;57.25;;;;;;;19.54;45.61;101198.75;5049382;28;20148;-68
2023/04/29 05:22:44;;;;;;;130.70;56.30;;;;;;;19.70;45.11;101201.56;5057314;28;20025;-68
2023/04/29 05:25:10;;;;;;;151.60;59.25;;;;;;;19.85;44.81;101213.28;5048687;28;20020;-68
2023/04/29 05:27:35;;;;;;;140.52;58.55;;;;;;;19.97;44.13;101206.53;5052725;28;20104;-68
2023/04/29 05:30:01;;;;;;;139.52;59.05;;;;;;;20.14;43.42;101215.47;5053853;28;20021;-68
2023/04/29 05:32:26;;;;;;;135.77;57.78;;;;;;;20.26;43.55;101217.53;5056978;28;20100;-69
2023/04/29 05:34:51;;;;;;;137.52;58.67;;;;;;;20.40;43.14;101224.81;5049573;28;20094;-68
2023/04/29 05:37:17;;;;;;;140.15;59.08;;;;;;;20.51;42.83;101214.53;5052823;28;20055;-68
2023/04/29 05:39:42;;;;;;;136.90;59.80;;;;;;;20.52;43.23;101220.69;5056309;28;20031;-68
2023/04/29 05:42:07;;;;;;;149.75;66.05;;;;;;;20.55;42.72;101223.22;5050493;28;20033;-68
2023/04/29 05:44:33;;;;;;;142.82;61.47;;;;;;;20.50;43.06;101226.06;5040803;28;20039;-68
2023/04/29 05:46:59;;;;;;;159.85;72.78;;;;;;;20.46;43.01;101221.00;5032791;28;20031;-68
2023/04/29 05:49:24;;;;;;;146.98;62.08;;;;;;;20.46;42.37;101224.50;5055104;28;20757;-67
2023/04/29 05:51:50;;;;;;;140.73;60.72;;;;;;;20.44;42.95;101221.94;5047354;28;20086;-67
2023/04/29 05:54:15;;;;;;;159.50;63.50;;;;;;;20.51;42.84;101232.25;5048991;28;20025;-68
2023/04/29 05:56:40;;;;;;;141.07;59.88;;;;;;;20.64;42.65;101237.78;5047569;28;20052;-68
2023/04/29 05:59:06;;;;;;;137.63;61.80;;;;;;;20.72;42.43;101239.19;5058763;28;20385;-67
2023/04/29 06:01:31;;;;;;;136.32;60.97;;;;;;;20.81;41.85;101239.66;5049128;28;20025;-68
2023/04/29 06:03:57;;;;;;;142.40;62.83;;;;;;;21.01;41.82;101243.91;5055091;28;20482;-68
2023/04/29 06:06:22;;;;;;;141.13;61.58;;;;;;;21.22;41.04;101250.78;5048294;28;20520;-68
2023/04/29 06:08:48;;;;;;;139.73;61.58;;;;;;;21.49;40.54;101258.25;5057601;28;20111;-68
2023/04/29 06:11:13;;;;;;;129.43;60.08;;;;;;;21.78;39.96;101263.81;5051463;28;20013;-68
2023/04/29 06:13:39;;;;;;;137.52;61.80;;;;;;;21.93;39.92;101256.81;5056133;28;20055;-68
2023/04/29 06:16:04;;;;;;;134.68;60.90;;;;;;;22.57;38.51;101262.13;5049210;28;20027;-69
2023/04/29 06:18:30;;;;;;;154.50;64.53;;;;;;;23.45;36.70;101265.78;5055444;28;20496;-68
2023/04/29 06:20:55;;;;;;;138.98;61.72;;;;;;;24.75;34.10;101268.22;5057515;28;20095;-69
2023/04/29 06:23:20;;;;;;;135.25;60.50;;;;;;;24.08;35.55;101269.00;5039987;28;20025;-67
2023/04/29 06:25:46;;;;;;;138.77;61.88;;;;;;;24.68;34.14;101271.41;5037962;28;20036;-69
2023/04/29 06:28:11;;;;;;;137.23;60.65;;;;;;;24.72;34.01;101268.44;5057614;28;20460;-69
2023/04/29 06:30:36;;;;;;;139.15;62.42;;;;;;;24.84;34.36;101271.22;5059657;28;20013;-69
2023/04/29 06:33:02;;;;;;;141.98;62.08;;;;;;;26.14;32.00;101277.31;5060875;28;20043;-69
2023/04/29 06:35:27;;;;;;;150.35;65.10;;;;;;;27.24;30.12;101270.94;5064505;28;20085;-68
2023/04/29 06:37:52;;;;;;;141.20;62.65;;;;;;;27.80;28.83;101271.00;5052363;28;20035;-69
2023/04/29 06:40:18;;;;;;;135.50;63.00;;;;;;;29.00;27.16;101275.53;5051388;28;20048;-69
2023/04/29 06:42:43;;;;;;;138.90;62.65;;;;;;;28.91;27.13;101270.97;5054740;28;20060;-69
2023/04/29 06:45:09;;;;;;;136.70;62.15;;;;;;;29.23;27.06;101278.94;5033850;28;20029;-68
2023/04/29 06:47:34;;;;;;;143.93;65.45;;;;;;;29.94;25.62;101283.56;5049867;28;20051;-69
2023/04/29 06:50:00;;;;;;;144.13;63.47;;;;;;;29.41;26.60;101287.31;5051313;28;20029;-68
2023/04/29 06:52:25;;;;;;;138.45;63.08;;;;;;;29.37;26.27;101293.06;5058614;28;20021;-68
2023/04/29 06:54:50;;;;;;;135.90;62.55;;;;;;;30.58;24.56;101296.72;5059549;28;20366;-68
2023/04/29 06:57:16;;;;;;;136.55;62.25;;;;;;;31.39;23.42;101299.06;5048531;28;20044;-68
2023/04/29 06:59:41;;;;;;;145.90;64.95;;;;;;;31.87;23.31;101301.75;5051248;28;20029;-69
2023/04/29 07:02:06;;;;;;;134.82;62.47;;;;;;;32.26;22.91;101297.00;5049751;28;20032;-66
2023/04/29 07:04:32;;;;;;;146.02;65.15;;;;;;;32.49;22.52;101304.63;5057136;28;20025;-68
2023/04/29 07:06:58;;;;;;;139.95;63.08;;;;;;;32.67;21.72;101297.38;5051414;28;20067;-67
2023/04/29 07:09:25;;;;;;;130.50;63.35;;;;;;;33.00;20.75;101307.66;5056992;28;20016;-68
2023/04/29 07:11:50;;;;;;;139.00;64.93;;;;;;;33.07;20.67;101308.72;5037042;28;20021;-68
2023/04/29 07:14:16;;;;;;;162.80;66.85;;;;;;;33.32;20.02;101311.59;5054101;28;20484;-69
2023/04/29 07:16:41;;;;;;;136.15;63.10;;;;;;;33.46;20.05;101321.88;5053210;28;20100;-69
2023/04/29 07:19:06;;;;;;;164.23;66.35;;;;;;;33.35;20.55;101325.69;5053113;28;20025;-68
2023/04/29 07:21:32;;;;;;;146.98;64.70;;;;;;;33.52;20.04;101328.50;5051893;28;20044;-66
2023/04/29 07:23:59;;;;;;;158.10;67.35;;;;;;;33.50;19.87;101328.66;5046514;28;20402;-69
2023/04/29 07:26:25;;;;;;;153.45;66.50;;;;;;;33.50;19.43;101328.66;5046243;28;20033;-68
2023/04/29 07:28:50;;;;;;;144.27;64.75;;;;;;;33.71;19.24;101321.97;5028487;28;20494;-66
2023/04/29 07:31:16;;;;;;;143.65;64.15;;;;;;;33.85;19.71;101328.66;5056113;28;20017;-69
2023/04/29 07:33:41;;;;;;;136.85;65.15;;;;;;;33.92;20.33;101337.84;5037906;28;20036;-67
2023/04/29 07:36:06;;;;;;;137.18;64.07;;;;;;;33.96;20.17;101331.06;5053734;28;20029;-68
2023/04/29 07:38:32;;;;;;;141.70;63.30;;;;;;;33.98;20.54;101339.06;5054047;28;20032;-69
2023/04/29 07:40:58;;;;;;;134.80;62.85;;;;;;;33.94;20.60;101340.41;5054645;28;20036;-67
2023/04/29 07:43:23;;;;;;;138.85;64.80;;;;;;;33.94;20.37;101335.81;5047776;28;20025;-67
2023/04/29 07:45:49;;;;;;;132.95;63.85;;;;;;;33.82;19.53;101337.97;5053067;28;20064;-67
2023/04/29 07:48:14;;;;;;;139.40;63.75;;;;;;;34.00;20.38;101347.88;5051808;28;20020;-68
2023/04/29 07:50:40;;;;;;;139.30;65.78;;;;;;;33.84;20.61;101348.63;5057641;28;20086;-68
2023/04/29 07:53:05;;;;;;;140.05;65.55;;;;;;;33.70;20.54;101350.06;5053737;28;20481;-68
2023/04/29 07:55:30;;;;;;;160.93;67.85;;;;;;;33.66;21.13;101359.53;5055058;28;20028;-68
2023/04/29 07:57:56;;;;;;;151.13;65.88;;;;;;;33.03;21.72;101362.28;5034633;28;20096;-68
2023/04/29 08:00:22;;;;;;;132.32;63.30;;;;;;;33.17;21.59;101368.16;5059443;28;20535;-68
2023/04/29 08:02:54;;;;;;;149.55;65.70;;;;;;;33.04;21.48;101365.84;5051522;28;21109;-68
2023/04/29 08:05:20;;;;;;;139.27;63.72;;;;;;;32.95;21.91;101367.63;5050614;28;20030;-68
2023/04/29 08:07:47;;;;;;;144.48;66.53;;;;;;;32.97;21.80;101372.88;5056492;28;20039;-67
2023/04/29 08:10:12;;;;;;;133.60;64.22;;;;;;;32.88;21.46;101373.84;5058658;28;20112;-67
2023/04/29 08:12:37;;;;;;;152.77;66.40;;;;;;;32.90;21.69;101371.81;5054980;28;20482;-68
2023/04/29 08:15:04;;;;;;;140.05;64.13;;;;;;;32.81;21.73;101382.56;5054859;28;20080;-69
2023/04/29 08:17:29;;;;;;;155.80;67.90;;;;;;;32.66;22.68;101384.06;5055902;28;20055;-69
2023/04/29 08:19:54;;;;;;;148.60;64.55;;;;;;;32.44;22.23;101380.81;5046409;28;20056;-66
2023/04/29 08:22:20;;;;;;;145.25;64.25;;;;;;;32.23;22.93;101382.91;5045440;28;20028;-67
2023/04/29 08:24:45;;;;;;;155.80;67.97;;;;;;;32.39;23.15;101396.63;5043395;28;20021;-68
2023/04/29 08:27:10;;;;;;;155.98;66.47;;;;;;;32.14;23.13;101396.28;5044136;28;20024;-70
2023/04/29 08:29:36;;;;;;;150.45;64.72;;;;;;;31.94;23.92;101400.09;5043986;28;20028;-66
2023/04/29 08:32:02;;;;;;;169.25;70.05;;;;;;;31.65;22.95;101401.88;5045249;28;20429;-72
2023/04/29 08:34:27;;;;;;;151.55;66.78;;;;;;;31.35;24.09;101414.53;5045370;28;20059;-71
2023/04/29 08:36:52;;;;;;;168.18;68.00;;;;;;;30.92;22.73;101423.03;5053278;28;20032;-69
2023/04/29 08:39:17;;;;;;;145.13;66.75;;;;;;;30.43;22.17;101420.22;5058106;28;20044;-70
2023/04/29 08:41:48;;;;;;;139.93;65.90;;;;;;;30.39;22.53;101419.66;5060978;28;20040;-68
2023/04/29 08:44:13;;;;;;;175.23;72.90;;;;;;;30.27;22.28;101423.44;5034593;28;20032;-72
2023/04/29 08:46:39;;;;;;;146.00;67.05;;;;;;;30.07;22.10;101426.06;5042526;28;20025;-70
2023/04/29 08:49:05;;;;;;;147.07;66.57;;;;;;;30.11;22.97;101427.50;5051019;28;20051;-69
2023/04/29 08:51:32;;;;;;;145.45;65.97;;;;;;;30.03;22.98;101418.41;5052352;28;20512;-70
2023/04/29 08:53:57;;;;;;;157.40;67.50;;;;;;;29.95;23.26;101421.75;5034298;28;20025;-70
2023/04/29 08:56:23;;;;;;;144.35;67.22;;;;;;;29.93;22.90;101424.59;5055459;28;20024;-70
2023/04/29 08:58:53;;;;;;;140.30;65.75;;;;;;;29.79;22.68;101420.38;5055368;28;20112;-70
2023/04/29 09:01:19;;;;;;;143.23;66.38;;;;;;;29.69;22.47;101422.13;5064732;28;20025;-70
2023/04/29 09:04:04;;;;;;;145.52;66.97;;;;;;;29.57;22.85;101424.03;5042960;28;20020;-70
2023/04/29 09:06:32;;;;;;;146.38;66.75;;;;;;;29.33;23.37;101421.63;5041514;28;20029;-70
2023/04/29 09:08:58;;;;;;;147.02;67.75;;;;;;;29.21;23.57;101425.31;5057843;28;20028;-70
2023/04/29 09:11:23;;;;;;;156.02;68.03;;;;;;;29.08;23.96;101423.66;5062506;28;20044;-69
2023/04/29 09:13:49;;;;;;;144.68;65.53;;;;;;;28.83;23.65;101427.53;5053307;28;20078;-70
2023/04/29 09:16:14;;;;;;;158.48;67.72;;;;;;;28.61;23.65;101431.09;5052849;28;20040;-69
2023/04/29 09:18:47;;;;;;;148.27;66.40;;;;;;;28.43;24.45;101434.28;5053054;28;20025;-70
2023/04/29 09:21:18;;;;;;;153.50;66.90;;;;;;;28.30;23.98;101439.78;5057904;28;20017;-70
2023/04/29 09:23:45;;;;;;;144.45;66.03;;;;;;;28.16;24.39;101440.03;5059598;28;20532;-70
2023/04/29 09:26:10;;;;;;;135.85;62.67;;;;;;;27.91;24.95;101443.75;5056850;28;20541;-70
2023/04/29 09:28:36;;;;;;;147.18;66.65;;;;;;;27.65;24.89;101450.19;5055736;28;20155;-70
2023/04/29 09:31:06;;;;;;;154.55;65.90;;;;;;;27.40;25.18;101445.00;5050257;28;20048;-70
2023/04/29 09:33:48;;;;;;;166.10;68.38;;;;;;;27.11;25.83;101456.06;5046794;28;20029;-72
2023/04/29 09:36:57;;;;;;;154.23;65.18;;;;;;;26.79;25.83;101446.75;5047921;28;20032;-74
2023/04/29 09:39:23;;;;;;;154.35;65.43;;;;;;;26.43;26.72;101452.91;5050287;28;20029;-73
2023/04/29 09:41:52;;;;;;;161.60;67.43;;;;;;;26.04;27.56;101444.94;5053483;28;20039;-71
2023/04/29 09:44:18;;;;;;;175.57;68.63;;;;;;;25.75;27.83;101447.75;5047969;28;20489;-71
2023/04/29 09:46:54;;;;;;;142.38;64.05;;;;;;;25.34;27.65;101454.09;5039555;28;20037;-71
2023/04/29 09:49:31;;;;;;;180.50;69.65;;;;;;;24.96;29.04;101462.78;5040648;28;20577;-74
2023/04/29 09:52:00;;;;;;;193.27;71.00;;;;;;;24.65;29.41;101459.44;5045183;28;20099;-73
2023/04/29 09:54:27;;;;;;;174.93;69.30;;;;;;;24.36;30.98;101459.41;5029179;28;20603;-75
2023/04/29 09:56:53;;;;;;;183.70;70.05;;;;;;;24.12;32.05;101462.66;5038575;28;20067;-68
2023/04/29 09:59:19;;;;;;;149.35;65.22;;;;;;;23.96;31.89;101456.53;5048663;28;20051;-70
2023/04/29 10:01:52;;;;;;;158.13;66.72;;;;;;;24.00;32.63;101463.41;5053371;28;20032;-70
2023/04/29 10:04:19;;;;;;;172.10;75.80;;;;;;;23.92;32.98;101465.69;5040971;28;20106;-69
2023/04/29 10:06:47;;;;;;;149.45;65.55;;;;;;;23.85;32.76;101469.66;5030313;28;20449;-70
2023/04/29 10:09:16;;;;;;;144.80;64.80;;;;;;;23.73;33.23;101461.41;5048425;28;20749;-70
2023/04/29 10:11:44;;;;;;;165.25;79.13;;;;;;;23.59;33.70;101470.25;5046036;28;20043;-69
2023/04/29 10:14:13;;;;;;;159.10;67.40;;;;;;;23.55;33.40;101468.69;5037341;28;20489;-70
2023/04/29 10:16:45;;;;;;;152.50;68.18;;;;;;;23.50;33.26;101461.94;5054190;28;20052;-70
2023/04/29 10:19:11;;;;;;;145.23;65.32;;;;;;;23.40;33.53;101467.78;5026026;28;20164;-70
2023/04/29 10:21:37;;;;;;;154.45;67.45;;;;;;;23.33;34.49;101479.75;5048739;28;20025;-70
2023/04/29 10:24:03;;;;;;;160.52;68.03;;;;;;;23.27;34.30;101472.09;5046859;28;20371;-70
2023/04/29 10:26:30;;;;;;;148.77;64.63;;;;;;;23.18;34.53;101473.50;5041671;28;21024;-70
2023/04/29 10:28:58;;;;;;;154.35;67.03;;;;;;;23.12;34.77;101482.72;5048084;28;20020;-70
2023/04/29 10:31:27;;;;;;;154.35;67.30;;;;;;;23.10;35.17;101489.03;5046266;28;20021;-71
2023/04/29 10:33:56;;;;;;;147.50;66.38;;;;;;;23.05;35.33;101491.09;5050686;28;20115;-71
2023/04/29 10:36:23;;;;;;;147.25;63.83;;;;;;;22.97;35.22;101483.53;5047099;28;20686;-70
2023/04/29 10:38:52;;;;;;;146.25;64.22;;;;;;;22.94;35.04;101491.69;5032364;28;20056;-68
2023/04/29 10:41:29;;;;;;;144.65;64.65;;;;;;;22.84;35.66;101483.38;5031161;28;20024;-71
2023/04/29 10:43:57;;;;;;;151.25;65.38;;;;;;;22.77;35.78;101488.16;5051524;28;20033;-70
2023/04/29 10:46:28;;;;;;;161.00;71.47;;;;;;;22.70;35.79;101492.13;5050307;28;20485;-71
2023/04/29 10:49:01;;;;;;;151.73;64.35;;;;;;;22.70;35.83;101493.91;5046979;28;20110;-70
2023/04/29 10:51:30;;;;;;;147.35;66.45;;;;;;;22.76;35.29;101490.91;5047859;28;20028;-70
2023/04/29 10:54:00;;;;;;;140.45;63.45;;;;;;;22.76;35.56;101497.09;5047404;28;20135;-70
2023/04/29 10:56:40;;;;;;;145.50;65.00;;;;;;;22.76;35.57;101497.09;5045782;28;20025;-70
2023/04/29 10:59:09;;;;;;;146.68;64.10;;;;;;;22.65;35.80;101496.84;5044693;28;20021;-70
2023/04/29 11:01:41;;;;;;;143.20;64.15;;;;;;;22.54;36.25;101489.44;5046490;28;20029;-70